createdAt,value
2023-03-10T00:00:41.564Z,2.97
2023-03-10T00:03:08.265Z,3.08
2023-03-10T00:05:36.225Z,2.22
2023-03-10T00:08:03.119Z,2.22
2023-03-10T00:10:29.829Z,1.83
2023-03-10T00:12:56.797Z,2.10
2023-03-10T00:15:24.004Z,2.60
2023-03-10T00:17:52.088Z,3.28
2023-03-10T00:20:18.892Z,1.95
2023-03-10T00:22:45.640Z,2.42
2023-03-10T00:25:12.610Z,2.20
2023-03-10T00:27:39.308Z,1.50
2023-03-10T00:30:06.646Z,2.83
2023-03-10T00:32:36.001Z,1.92
2023-03-10T00:35:04.969Z,2.10
2023-03-10T00:37:31.661Z,1.95
2023-03-10T00:39:58.541Z,2.95
2023-03-10T00:42:25.198Z,2.17
2023-03-10T00:44:52.100Z,1.75
2023-03-10T00:47:18.809Z,1.35
2023-03-10T00:49:45.472Z,1.85
2023-03-10T00:52:12.338Z,2.90
2023-03-10T00:54:40.956Z,1.92
2023-03-10T00:57:08.932Z,3.05
2023-03-10T00:59:49.369Z,2.15
2023-03-10T01:02:16.340Z,2.13
2023-03-10T01:04:43.109Z,2.58
2023-03-10T01:07:09.841Z,2.60
2023-03-10T01:09:36.570Z,1.73
2023-03-10T01:12:03.556Z,2.00
2023-03-10T01:14:31.825Z,1.38
2023-03-10T01:16:59.411Z,1.83
2023-03-10T01:19:26.207Z,1.85
2023-03-10T01:21:52.998Z,2.67
2023-03-10T01:24:19.674Z,2.15
2023-03-10T01:26:46.393Z,1.90
2023-03-10T01:29:13.222Z,2.15
2023-03-10T01:31:41.872Z,2.20
2023-03-10T01:34:08.971Z,2.05
2023-03-10T01:36:35.745Z,1.70
2023-03-10T01:39:02.506Z,1.63
2023-03-10T01:41:29.300Z,1.70
2023-03-10T01:43:57.168Z,1.90
2023-03-10T01:46:47.191Z,1.20
2023-03-10T01:49:36.806Z,1.55
2023-03-10T01:52:10.638Z,2.08
2023-03-10T01:54:59.629Z,1.70
2023-03-10T01:57:37.589Z,1.33
2023-03-10T02:00:12.260Z,2.47
2023-03-10T02:02:50.267Z,1.02
2023-03-10T02:05:19.853Z,1.65
2023-03-10T02:07:46.720Z,1.60
2023-03-10T02:10:14.903Z,1.20
2023-03-10T02:12:46.053Z,2.90
2023-03-10T02:15:13.062Z,2.97
2023-03-10T02:17:40.537Z,2.08
2023-03-10T02:20:21.140Z,1.52
2023-03-10T02:22:48.845Z,1.40
2023-03-10T02:25:28.714Z,2.17
2023-03-10T02:27:56.013Z,1.77
2023-03-10T02:30:42.511Z,1.58
2023-03-10T02:33:25.473Z,1.13
2023-03-10T02:35:54.302Z,1.60
2023-03-10T02:38:23.315Z,1.23
2023-03-10T02:40:52.222Z,1.67
2023-03-10T02:43:27.343Z,1.48
2023-03-10T02:46:02.526Z,2.20
2023-03-10T02:48:33.278Z,1.40
2023-03-10T02:51:04.236Z,2.45
2023-03-10T02:53:31.108Z,1.98
2023-03-10T02:55:58.492Z,1.20
2023-03-10T02:58:27.704Z,1.55
2023-03-10T03:00:55.715Z,1.10
2023-03-10T03:03:22.566Z,1.45
2023-03-10T03:05:50.207Z,1.80
2023-03-10T03:08:18.897Z,1.23
2023-03-10T03:10:46.068Z,0.82
2023-03-10T03:13:12.824Z,1.73
2023-03-10T03:15:39.669Z,1.45
2023-03-10T03:18:07.697Z,1.45
2023-03-10T03:20:36.966Z,1.45
2023-03-10T03:23:04.325Z,1.63
2023-03-10T03:25:36.394Z,1.35
2023-03-10T03:28:03.559Z,1.30
2023-03-10T03:30:30.505Z,1.17
2023-03-10T03:32:58.268Z,1.10
2023-03-10T03:35:29.370Z,1.40
2023-03-10T03:37:56.853Z,1.25
2023-03-10T03:40:27.687Z,1.30
2023-03-10T03:42:55.772Z,1.10
2023-03-10T03:45:26.028Z,0.95
2023-03-10T03:47:54.919Z,1.48
2023-03-10T03:50:22.542Z,1.10
2023-03-10T03:52:51.055Z,1.23
2023-03-10T03:55:21.048Z,2.28
2023-03-10T03:57:50.594Z,2.53
2023-03-10T04:00:21.341Z,2.17
2023-03-10T04:02:53.503Z,1.55
2023-03-10T04:05:20.398Z,1.73
2023-03-10T04:07:48.272Z,1.20
2023-03-10T04:10:21.255Z,1.00
2023-03-10T04:12:48.115Z,1.15
2023-03-10T04:15:15.331Z,1.17
2023-03-10T04:17:42.148Z,1.52
2023-03-10T04:20:10.039Z,1.33
2023-03-10T04:22:41.182Z,2.10
2023-03-10T04:25:09.563Z,1.15
2023-03-10T04:27:36.670Z,1.73
2023-03-10T04:30:07.052Z,1.70
2023-03-10T04:32:36.834Z,0.85
2023-03-10T04:35:06.117Z,1.75
2023-03-10T04:37:33.624Z,2.05
2023-03-10T04:40:02.440Z,1.55
2023-03-10T04:42:29.484Z,0.90
2023-03-10T04:44:56.344Z,1.30
2023-03-10T04:47:23.851Z,1.02
2023-03-10T04:49:50.565Z,1.48
2023-03-10T04:52:17.300Z,0.77
2023-03-10T04:54:43.961Z,1.25
2023-03-10T04:57:10.648Z,0.85
2023-03-10T04:59:37.848Z,1.48
2023-03-10T05:02:04.772Z,1.60
2023-03-10T05:04:31.608Z,0.95
2023-03-10T05:06:58.737Z,1.13
2023-03-10T05:09:35.806Z,1.60
2023-03-10T05:12:02.932Z,1.05
2023-03-10T05:14:33.935Z,2.05
2023-03-10T05:17:01.111Z,2.28
2023-03-10T05:19:29.151Z,1.65
2023-03-10T05:21:58.300Z,1.13
2023-03-10T05:24:25.142Z,1.80
2023-03-10T05:26:51.973Z,1.50
2023-03-10T05:29:20.762Z,1.23
2023-03-10T05:31:52.451Z,1.42
2023-03-10T05:34:26.831Z,1.13
2023-03-10T05:36:56.558Z,0.80
2023-03-10T05:39:23.805Z,1.55
2023-03-10T05:41:53.689Z,1.35
2023-03-10T05:44:21.572Z,0.80
2023-03-10T05:46:49.260Z,0.98
2023-03-10T05:49:16.164Z,1.58
2023-03-10T05:51:42.933Z,1.92
2023-03-10T05:54:09.851Z,0.95
2023-03-10T05:56:36.861Z,1.55
2023-03-10T05:59:06.808Z,1.73
2023-03-10T06:01:36.328Z,1.70
2023-03-10T06:04:03.689Z,1.25
2023-03-10T06:06:30.511Z,1.25
2023-03-10T06:08:57.642Z,1.60
2023-03-10T06:11:24.352Z,1.83
2023-03-10T06:13:51.024Z,1.40
2023-03-10T06:16:17.932Z,0.98
2023-03-10T06:18:44.757Z,1.77
2023-03-10T06:21:14.448Z,1.90
2023-03-10T06:23:41.373Z,1.83
2023-03-10T06:26:12.363Z,1.83
2023-03-10T06:28:41.667Z,1.35
2023-03-10T06:31:14.454Z,1.25
2023-03-10T06:33:41.475Z,2.38
2023-03-10T06:36:10.830Z,1.65
2023-03-10T06:38:37.876Z,2.63
2023-03-10T06:41:05.507Z,2.42
2023-03-10T06:43:33.270Z,2.17
2023-03-10T06:46:02.410Z,2.15
2023-03-10T06:48:29.096Z,1.98
2023-03-10T06:50:55.853Z,1.88
2023-03-10T06:53:22.794Z,1.92
2023-03-10T06:56:01.579Z,2.53
2023-03-10T06:58:29.062Z,1.83
2023-03-10T07:00:56.200Z,2.53
2023-03-10T07:03:24.909Z,2.78
2023-03-10T07:06:00.687Z,4.85
2023-03-10T07:08:28.629Z,2.15
2023-03-10T07:10:56.279Z,7.10
2023-03-10T07:13:23.128Z,6.45
2023-03-10T07:15:50.101Z,4.18
2023-03-10T07:18:17.128Z,5.97
2023-03-10T07:20:45.435Z,5.07
2023-03-10T07:23:12.768Z,6.10
2023-03-10T07:25:40.790Z,4.72
2023-03-10T07:28:08.129Z,7.55
2023-03-10T07:30:35.311Z,4.72
2023-03-10T07:33:02.127Z,4.07
2023-03-10T07:35:28.843Z,2.28
2023-03-10T07:37:55.594Z,3.42
2023-03-10T07:40:24.861Z,4.43
2023-03-10T07:42:54.393Z,3.42
2023-03-10T07:45:25.240Z,3.55
2023-03-10T07:47:53.159Z,3.75
2023-03-10T07:50:20.866Z,4.40
2023-03-10T07:52:48.804Z,4.13
2023-03-10T07:55:15.724Z,5.20
2023-03-10T07:57:42.447Z,4.03
2023-03-10T08:00:10.309Z,3.42
2023-03-10T08:02:41.116Z,8.95
2023-03-10T08:05:09.504Z,7.53
2023-03-10T08:07:36.576Z,5.30
2023-03-10T08:10:03.781Z,6.95
2023-03-10T08:12:30.474Z,3.60
2023-03-10T08:14:57.287Z,5.13
2023-03-10T08:17:30.473Z,4.05
2023-03-10T08:19:58.421Z,2.70
2023-03-10T08:22:25.203Z,3.28
2023-03-10T08:24:51.868Z,3.60
2023-03-10T08:27:18.729Z,4.65
2023-03-10T08:29:45.436Z,4.15
2023-03-10T08:32:12.453Z,3.05
2023-03-10T08:34:39.230Z,2.63
2023-03-10T08:37:06.169Z,4.88
2023-03-10T08:39:32.829Z,2.85
2023-03-10T08:41:59.566Z,2.00
2023-03-10T08:44:26.412Z,2.58
2023-03-10T08:46:53.406Z,2.13
2023-03-10T08:49:21.702Z,5.20
2023-03-10T08:51:49.179Z,2.15
2023-03-10T08:54:18.540Z,3.63
2023-03-10T08:56:45.302Z,2.08
2023-03-10T08:59:12.223Z,1.85
2023-03-10T09:01:39.506Z,2.97
2023-03-10T09:04:08.773Z,2.42
2023-03-10T09:06:36.561Z,2.13
2023-03-10T09:09:05.152Z,2.80
2023-03-10T09:11:33.957Z,2.92
2023-03-10T09:14:01.932Z,3.47
2023-03-10T09:16:29.919Z,2.45
2023-03-10T09:18:57.761Z,4.82
2023-03-10T09:21:25.827Z,2.85
2023-03-10T09:23:53.128Z,2.63
2023-03-10T09:26:20.875Z,2.58
2023-03-10T09:28:49.382Z,2.88
2023-03-10T09:31:22.852Z,3.47
2023-03-10T09:33:49.752Z,6.70
2023-03-10T09:36:17.494Z,2.63
2023-03-10T09:38:44.623Z,2.42
2023-03-10T09:41:26.230Z,4.72
2023-03-10T09:43:59.683Z,2.33
2023-03-10T09:46:46.074Z,2.67
2023-03-10T09:49:23.108Z,2.67
2023-03-10T09:51:51.858Z,2.45
2023-03-10T09:54:54.965Z,3.60
2023-03-10T09:57:23.563Z,2.67
2023-03-10T09:59:55.852Z,2.45
2023-03-10T10:02:32.405Z,3.00
2023-03-10T10:05:04.513Z,2.42
2023-03-10T10:07:46.360Z,2.75
2023-03-10T10:10:24.715Z,2.53
2023-03-10T10:12:54.549Z,3.00
2023-03-10T10:15:24.013Z,1.40
2023-03-10T10:18:20.253Z,2.50
2023-03-10T10:20:53.848Z,2.15
2023-03-10T10:23:40.745Z,2.30
2023-03-10T10:26:24.037Z,2.35
2023-03-10T10:28:56.610Z,2.80
2023-03-10T10:31:27.210Z,1.58
2023-03-10T10:33:59.743Z,2.47
2023-03-10T10:36:35.353Z,1.92
2023-03-10T10:39:04.661Z,2.70
2023-03-10T10:41:33.927Z,1.55
2023-03-10T10:44:09.420Z,3.40
2023-03-10T10:46:36.222Z,2.80
2023-03-10T10:49:24.691Z,2.08
2023-03-10T10:52:03.765Z,2.33
2023-03-10T10:54:41.633Z,1.90
2023-03-10T10:57:20.559Z,1.08
2023-03-10T10:59:47.871Z,1.02
2023-03-10T11:02:22.661Z,1.73
2023-03-10T11:04:49.374Z,2.50
2023-03-10T11:07:17.715Z,4.43
2023-03-10T11:09:44.477Z,4.82
2023-03-10T11:12:21.760Z,2.42
2023-03-10T11:15:01.771Z,4.82
2023-03-10T11:17:51.847Z,7.05
2023-03-10T11:20:24.646Z,4.32
2023-03-10T11:22:51.629Z,4.18
2023-03-10T11:25:31.516Z,2.97
2023-03-10T11:28:16.694Z,5.38
2023-03-10T11:30:55.545Z,3.50
2023-03-10T11:33:40.039Z,7.00
2023-03-10T11:36:30.566Z,5.90
2023-03-10T11:39:14.547Z,3.72
2023-03-10T11:41:48.316Z,5.15
2023-03-10T11:44:38.173Z,7.45
2023-03-10T11:47:12.332Z,5.63
2023-03-10T11:49:41.652Z,9.20
2023-03-10T11:52:15.717Z,6.80
2023-03-10T11:54:53.023Z,5.43
2023-03-10T11:57:22.096Z,4.80
2023-03-10T11:59:55.380Z,5.93
2023-03-10T12:02:29.702Z,6.28
2023-03-10T12:05:18.236Z,5.53
2023-03-10T12:07:48.496Z,5.38
2023-03-10T12:10:18.063Z,7.03
2023-03-10T12:12:47.340Z,3.60
2023-03-10T12:15:28.969Z,6.13
2023-03-10T12:17:57.132Z,4.35
2023-03-10T12:20:25.842Z,6.28
2023-03-10T12:23:01.179Z,4.47
2023-03-10T12:25:30.671Z,6.20
2023-03-10T12:28:12.498Z,3.50
2023-03-10T12:31:15.380Z,4.82
2023-03-10T12:33:47.232Z,5.07
2023-03-10T12:36:16.481Z,5.18
2023-03-10T12:38:57.920Z,2.83
2023-03-10T12:41:27.712Z,2.53
2023-03-10T12:43:58.310Z,2.50
2023-03-10T12:46:30.626Z,4.70
2023-03-10T12:49:11.303Z,3.05
2023-03-10T12:51:46.334Z,2.47
2023-03-10T12:54:44.028Z,3.05
2023-03-10T12:57:19.562Z,2.22
2023-03-10T12:59:54.966Z,2.67
2023-03-10T13:02:33.889Z,2.25
2023-03-10T13:05:06.153Z,2.10
2023-03-10T13:07:34.522Z,3.17
2023-03-10T13:10:03.410Z,0.73
2023-03-10T13:12:37.024Z,1.90
2023-03-10T13:15:08.158Z,1.58
2023-03-10T13:17:34.969Z,2.20
2023-03-10T13:20:19.197Z,2.30
2023-03-10T13:22:56.954Z,3.00
2023-03-10T13:25:24.925Z,1.17
2023-03-10T13:27:52.699Z,5.00
2023-03-10T13:30:24.033Z,2.28
2023-03-10T13:32:59.631Z,1.20
2023-03-10T13:35:32.100Z,2.00
2023-03-10T13:38:08.682Z,1.15
2023-03-10T13:40:48.815Z,2.08
2023-03-10T13:43:36.070Z,3.05
2023-03-10T13:46:09.587Z,1.30
2023-03-10T13:48:37.367Z,0.77
2023-03-10T13:51:12.833Z,1.80
2023-03-10T13:53:39.529Z,1.70
2023-03-10T13:56:25.631Z,1.60
2023-03-10T13:58:55.750Z,1.95
2023-03-10T14:01:25.898Z,1.63
2023-03-10T14:04:08.564Z,1.45
2023-03-10T14:06:36.453Z,0.55
2023-03-10T14:09:22.713Z,1.48
2023-03-10T14:11:50.911Z,1.60
2023-03-10T14:14:31.651Z,1.00
2023-03-10T14:16:59.983Z,1.70
2023-03-10T14:19:39.894Z,1.10
2023-03-10T14:22:29.723Z,1.23
2023-03-10T14:24:58.673Z,1.13
2023-03-10T14:27:26.418Z,1.00
2023-03-10T14:30:00.469Z,0.57
2023-03-10T14:32:27.521Z,0.88
2023-03-10T14:34:54.298Z,1.08
2023-03-10T14:37:21.013Z,2.63
2023-03-10T14:39:47.715Z,0.30
2023-03-10T14:42:25.090Z,0.35
2023-03-10T14:44:53.037Z,0.30
2023-03-10T14:47:20.074Z,1.55
2023-03-10T14:49:46.919Z,0.75
2023-03-10T14:52:16.482Z,1.52
2023-03-10T14:54:43.644Z,0.98
2023-03-10T14:57:12.262Z,0.38
2023-03-10T14:59:39.651Z,0.32
2023-03-10T15:02:28.962Z,0.52
2023-03-10T15:04:55.725Z,1.30
2023-03-10T15:07:22.458Z,0.40
2023-03-10T15:09:52.570Z,0.73
2023-03-10T15:12:23.644Z,0.60
2023-03-10T15:14:53.910Z,0.50
2023-03-10T15:17:21.020Z,0.80
2023-03-10T15:19:47.655Z,0.70
2023-03-10T15:22:14.349Z,0.22
2023-03-10T15:24:41.132Z,0.80
2023-03-10T15:27:11.652Z,0.45
2023-03-10T15:29:38.498Z,0.52
2023-03-10T15:32:05.465Z,0.63
2023-03-10T15:34:32.237Z,0.20
2023-03-10T15:37:00.312Z,0.10
2023-03-10T15:39:31.866Z,0.22
2023-03-10T15:41:59.461Z,0.52
2023-03-10T15:44:26.259Z,2.00
2023-03-10T15:46:54.927Z,0.60
2023-03-10T15:49:21.951Z,1.50
2023-03-10T15:51:48.737Z,0.47
2023-03-10T15:54:15.691Z,0.35
2023-03-10T15:56:42.565Z,0.35
2023-03-10T15:59:09.558Z,0.30
2023-03-10T16:01:36.583Z,0.52
2023-03-10T16:04:05.788Z,0.95
2023-03-10T16:06:33.823Z,0.43
2023-03-10T16:09:01.144Z,0.20
2023-03-10T16:11:27.997Z,0.50
2023-03-10T16:13:54.667Z,0.17
2023-03-10T16:16:23.663Z,0.28
2023-03-10T16:18:50.947Z,0.03
2023-03-10T16:21:18.293Z,0.52
2023-03-10T16:23:45.259Z,0.30
2023-03-10T16:26:20.846Z,0.75
2023-03-10T16:28:50.589Z,0.45
2023-03-10T16:31:19.645Z,0.40
2023-03-10T16:33:48.317Z,0.20
2023-03-10T16:36:18.425Z,0.30
2023-03-10T16:38:46.132Z,0.20
2023-03-10T16:41:13.064Z,0.10
2023-03-10T16:43:40.300Z,0.28
2023-03-10T16:46:13.976Z,0.60
2023-03-10T16:48:43.238Z,0.20
2023-03-10T16:51:26.846Z,0.85
2023-03-10T16:53:55.947Z,0.47
2023-03-10T16:56:25.600Z,0.22
2023-03-10T16:58:53.371Z,0.47
2023-03-10T17:01:20.423Z,0.63
2023-03-10T17:03:48.794Z,0.10
2023-03-10T17:06:20.083Z,0.35
2023-03-10T17:08:46.782Z,0.30
2023-03-10T17:11:25.144Z,0.10
2023-03-10T17:13:56.953Z,0.35
2023-03-10T17:16:28.201Z,0.15
2023-03-10T17:19:00.291Z,0.77
2023-03-10T17:21:32.653Z,0.10
2023-03-10T17:23:59.387Z,0.20
2023-03-10T17:26:26.185Z,0.20
2023-03-10T17:28:53.057Z,0.10
2023-03-10T17:31:26.292Z,0.10
2023-03-10T17:33:59.703Z,0.10
2023-03-10T17:36:27.380Z,0.20
2023-03-10T17:38:59.276Z,0.10
2023-03-10T17:41:26.790Z,0.30
2023-03-10T17:43:54.406Z,0.15
2023-03-10T17:46:24.270Z,0.32
2023-03-10T17:48:51.920Z,0.20
2023-03-10T17:51:23.901Z,0.55
2023-03-10T17:53:51.326Z,0.32
2023-03-10T17:56:18.752Z,0.60
2023-03-10T17:58:45.443Z,0.65
2023-03-10T18:01:26.892Z,0.32
2023-03-10T18:03:58.295Z,0.47
2023-03-10T18:06:27.705Z,1.10
2023-03-10T18:08:56.554Z,0.38
2023-03-10T18:11:24.415Z,0.50
2023-03-10T18:13:51.237Z,1.92
2023-03-10T18:16:21.025Z,0.35
2023-03-10T18:18:47.830Z,0.68
2023-03-10T18:21:15.809Z,0.63
2023-03-10T18:23:42.953Z,0.65
2023-03-10T18:26:15.317Z,0.68
2023-03-10T18:28:42.118Z,1.05
2023-03-10T18:31:14.890Z,1.50
2023-03-10T18:33:41.606Z,0.75
2023-03-10T18:36:08.729Z,0.50
2023-03-10T18:38:35.539Z,1.13
2023-03-10T18:41:03.607Z,0.57
2023-03-10T18:43:32.071Z,1.45
2023-03-10T18:45:58.740Z,0.63
2023-03-10T18:48:28.276Z,0.65
2023-03-10T18:50:56.786Z,1.30
2023-03-10T18:53:24.687Z,0.43
2023-03-10T18:55:51.917Z,0.93
2023-03-10T18:58:18.765Z,0.60
2023-03-10T19:00:45.724Z,0.68
2023-03-10T19:03:13.578Z,1.50
2023-03-10T19:05:41.416Z,1.13
2023-03-10T19:08:08.534Z,1.52
2023-03-10T19:10:35.520Z,1.50
2023-03-10T19:13:02.907Z,0.82
2023-03-10T19:15:29.619Z,1.80
2023-03-10T19:17:56.347Z,1.13
2023-03-10T19:20:23.044Z,1.35
2023-03-10T19:22:53.139Z,1.95
2023-03-10T19:25:20.631Z,1.55
2023-03-10T19:27:48.861Z,2.67
2023-03-10T19:30:20.115Z,1.27
2023-03-10T19:32:47.839Z,0.98
2023-03-10T19:35:15.954Z,1.65
2023-03-10T19:37:46.993Z,2.53
2023-03-10T19:40:16.848Z,1.58
2023-03-10T19:42:43.760Z,2.22
2023-03-10T19:45:12.896Z,2.03
2023-03-10T19:47:41.485Z,1.88
2023-03-10T19:50:10.521Z,1.10
2023-03-10T19:52:38.916Z,2.25
2023-03-10T19:55:09.387Z,1.92
2023-03-10T19:57:36.663Z,0.95
2023-03-10T20:00:08.665Z,0.98
2023-03-10T20:02:35.511Z,1.98
2023-03-10T20:05:02.242Z,1.63
2023-03-10T20:07:28.933Z,1.20
2023-03-10T20:09:55.621Z,3.25
2023-03-10T20:12:22.481Z,2.95
2023-03-10T20:14:49.324Z,2.03
2023-03-10T20:17:17.992Z,1.08
2023-03-10T20:19:45.843Z,1.38
2023-03-10T20:22:15.119Z,2.63
2023-03-10T20:24:41.757Z,2.80
2023-03-10T20:27:08.439Z,1.40
2023-03-10T20:29:35.280Z,1.52
2023-03-10T20:32:04.302Z,2.25
2023-03-10T20:34:32.004Z,2.17
2023-03-10T20:36:58.823Z,1.25
2023-03-10T20:39:25.496Z,2.05
2023-03-10T20:41:52.373Z,1.90
2023-03-10T20:44:19.487Z,2.80
2023-03-10T20:46:46.291Z,2.17
2023-03-10T20:49:13.316Z,1.48
2023-03-10T20:51:40.243Z,2.33
2023-03-10T20:54:07.315Z,3.40
2023-03-10T20:56:34.176Z,2.40
2023-03-10T20:59:01.685Z,2.67
2023-03-10T21:01:29.537Z,2.42
2023-03-10T21:03:58.428Z,3.63
2023-03-10T21:06:28.831Z,2.30
2023-03-10T21:08:55.529Z,2.13
2023-03-10T21:11:22.278Z,1.85
2023-03-10T21:13:48.985Z,3.45
2023-03-10T21:16:15.793Z,2.55
2023-03-10T21:18:42.503Z,1.50
2023-03-10T21:21:09.839Z,1.88
2023-03-10T21:23:41.493Z,1.77
2023-03-10T21:26:16.222Z,2.17
2023-03-10T21:28:43.556Z,2.03
2023-03-10T21:31:11.074Z,1.70
2023-03-10T21:33:38.207Z,3.80
2023-03-10T21:36:05.255Z,2.38
2023-03-10T21:38:32.303Z,2.60
2023-03-10T21:40:58.966Z,1.45
2023-03-10T21:43:27.277Z,2.13
2023-03-10T21:45:54.051Z,2.80
2023-03-10T21:48:20.823Z,2.20
2023-03-10T21:50:47.507Z,2.45
2023-03-10T21:53:14.603Z,2.35
2023-03-10T21:55:41.646Z,1.90
2023-03-10T21:58:08.369Z,2.00
2023-03-10T22:00:36.201Z,0.95
2023-03-10T22:03:04.472Z,2.35
2023-03-10T22:05:31.142Z,2.65
2023-03-10T22:07:59.139Z,1.45
2023-03-10T22:10:25.889Z,2.83
2023-03-10T22:12:52.598Z,2.22
2023-03-10T22:15:22.126Z,1.90
2023-03-10T22:17:49.242Z,1.30
2023-03-10T22:20:20.455Z,1.88
2023-03-10T22:22:47.961Z,1.52
2023-03-10T22:25:15.544Z,1.27
2023-03-10T22:27:43.696Z,1.77
2023-03-10T22:30:13.962Z,1.48
2023-03-10T22:32:41.428Z,1.38
2023-03-10T22:35:09.916Z,1.15
2023-03-10T22:37:37.991Z,0.93
2023-03-10T22:40:05.784Z,0.90
2023-03-10T22:42:32.425Z,0.68
2023-03-10T22:45:00.500Z,1.88
2023-03-10T22:47:27.189Z,1.38
2023-03-10T22:49:54.470Z,1.75
2023-03-10T22:52:21.166Z,1.08
2023-03-10T22:54:47.815Z,0.85
2023-03-10T22:57:15.154Z,1.10
2023-03-10T22:59:42.141Z,1.20
2023-03-10T23:02:10.589Z,1.20
2023-03-10T23:04:37.272Z,1.13
2023-03-10T23:07:04.282Z,0.95
2023-03-10T23:09:31.095Z,0.70
2023-03-10T23:11:57.716Z,0.80
2023-03-10T23:14:24.388Z,0.47
2023-03-10T23:16:51.071Z,0.60
2023-03-10T23:19:17.716Z,1.45
2023-03-10T23:21:44.361Z,0.40
2023-03-10T23:24:11.026Z,0.40
2023-03-10T23:26:37.695Z,1.50
2023-03-10T23:29:04.495Z,0.35
2023-03-10T23:31:31.208Z,0.50
2023-03-10T23:33:57.839Z,0.65
2023-03-10T23:36:24.665Z,0.30
2023-03-10T23:38:51.351Z,0.65
2023-03-10T23:41:18.427Z,0.50
2023-03-10T23:43:45.257Z,0.60
2023-03-10T23:46:11.957Z,0.55
2023-03-10T23:48:38.758Z,0.57
2023-03-10T23:51:05.760Z,1.30
2023-03-10T23:53:32.532Z,0.90
2023-03-10T23:56:00.133Z,0.50
2023-03-10T23:58:27.925Z,0.20
